עמוד ראשי
METAR-TAF:

METAR-TAF

שדות תעופה :

Deadhorse, אלסקה, ארצות הברית

קו רוחב: 70-12N, קו אורך: 148-28W, גובה: 17מטר

תצפית מזג אוויר נוכחית

הדו"ח נערך לפני 39דקות, בשעה 16:53 UTC
רוח 14קשר מכיוון מזרח/צפון-מזרח
טמפרטורת 4 צלסיוס
לחות 65%
לחץ 1019 hPa
ראות: 16.1קילומטר
שמיים נקיים

METAR: PASC 191653Z 07014KT 10SM CLR 04/M02 A3009 RMK AO2 SLP190 T00391017 $

זמן: 09:32 (17:32 UTC)

תחזית

הדו"ח נערך לפני 5 שעות ו 41דקות, בשעה 11:51 UTC
תחזית בתוקף מ 19 ב 12 UTC עד 20 ב 12 UTC
רוח 13קשר מכיוון מזרח/צפון-מזרח
ראות: 10קילומטר
עננים פזורים בגובה 2500רגל
מ 19 ב 1800UTC
רוח 10קשר מכיוון מזרח/צפון-מזרח
ראות: 1.6קילומטר
מעונן בגובה 500רגל
אד
מ 20 ב 0000UTC
רוח 9קשר מכיוון צפון-מזרח
ראות: 10קילומטר
עננים פזורים בגובה 500רגל
מעונן בגובה 5000רגל
מ 20 ב 0800UTC
רוח 5קשר מכיוון צפון-מזרח
ראות: 1.6קילומטר
עננים בינוניים בגובה 500רגל
אד,

TAF: PASC 191151Z 1912/2012 07013KT P6SM SCT025 FM191800 06010KT 1SM BR OVC005 FM200000 05009KT P6SM SCT005 OVC050 FM200800 05005KT 1SM BR BKN005

תצפיות ותחזיות מזג אוויר לגבי יותר מ- 4,000 שדות תעופה ברחבי העולם. דוחות METAR ו- TAF.

התחנות הזמינות מסומנות בנקודות צהובות ואדומות על גבי המפה.

העבר את העכבר לנקודה הצבעונית על מנת לראות את שם התחנה.

לאחר מכן, לחץ כדי לראות את תוכן ואת תחזיות מזג האוויר.

כדי לשנות את המפה: לחץ על הכפתורים הירוקים עם הפלוס השחור כדי להתקרב; על הכפתור הירוק עם המקף כדי להתרחק; או בחיצים הירוקים למפות סמוכות.


METAR-TAF: